Time;durP1;ratioP1;P1;durP2;ratioP2;P2;SDS_P1;SDS_P2;PMS_P1;PMS_P2;Temp;Humidity;BMP_temperature;BMP_pressure;BME280_temperature;BME280_humidity;BME280_pressure;Samples;Min_cycle;Max_cycle;Signal;HPM_P1;HPM_P2
2021/06/24 00:02:24;;;;;;;6.97;5.05;;;16.10;99.90;;;14.81;79.57;101724.44;3510306;40;102261;-41
2021/06/24 00:04:52;;;;;;;8.50;5.00;;;16.10;99.90;;;14.84;78.83;101714.06;3509693;40;104171;-40
2021/06/24 00:07:22;;;;;;;8.48;5.40;;;16.10;99.90;;;14.85;78.83;101707.50;3509815;40;102447;-40
2021/06/24 00:09:49;;;;;;;8.63;5.90;;;16.20;99.90;;;14.83;79.30;101707.75;3509312;40;102241;-39
2021/06/24 00:12:17;;;;;;;5.97;4.97;;;16.10;99.90;;;14.84;79.53;101705.84;3509328;40;102373;-41
2021/06/24 00:14:45;;;;;;;7.50;5.00;;;16.10;99.90;;;14.78;80.52;101702.91;3509538;40;102322;-40
2021/06/24 00:17:12;;;;;;;10.05;6.38;;;16.10;99.90;;;14.78;80.61;101697.41;3509639;40;102505;-40
2021/06/24 00:19:42;;;;;;;7.75;5.30;;;16.10;99.90;;;14.73;80.36;101701.91;3509393;40;103542;-40
2021/06/24 00:22:09;;;;;;;8.18;5.15;;;16.10;99.90;;;14.71;79.36;101701.25;3509742;40;102266;-41
2021/06/24 00:24:37;;;;;;;6.57;5.22;;;16.00;99.90;;;14.71;79.49;101696.63;3509677;40;102318;-39
2021/06/24 00:27:05;;;;;;;9.40;5.75;;;16.10;99.90;;;14.72;80.51;101702.94;3509267;40;102925;-40
2021/06/24 00:29:32;;;;;;;9.13;5.20;;;16.00;99.90;;;14.70;79.78;101710.53;3509573;40;104166;-39
2021/06/24 00:32:00;;;;;;;8.95;5.50;;;16.10;99.90;;;14.68;79.94;101713.50;3508877;40;102439;-41
2021/06/24 00:34:28;;;;;;;7.20;5.25;;;16.00;99.90;;;14.67;80.20;101717.31;3509135;40;103100;-40
2021/06/24 00:36:55;;;;;;;8.07;5.03;;;16.00;99.90;;;14.65;80.38;101705.72;3509731;40;102570;-39
2021/06/24 00:39:22;;;;;;;7.18;5.20;;;16.00;99.90;;;14.63;80.56;101705.09;3509250;40;103519;-40
2021/06/24 00:41:51;;;;;;;11.65;6.13;;;16.00;99.90;;;14.67;80.38;101707.16;3641870;22;103292;-41
2021/06/24 00:44:19;;;;;;;6.47;4.90;;;16.00;99.90;;;14.67;80.62;101706.31;3508788;40;104517;-41
2021/06/24 00:46:46;;;;;;;10.27;5.88;;;16.00;99.90;;;14.67;80.12;101711.81;3509633;40;102408;-41
2021/06/24 00:49:15;;;;;;;8.35;5.25;;;16.00;99.90;;;14.65;79.93;101709.28;3509524;40;104176;-41
2021/06/24 00:51:43;;;;;;;6.78;4.88;;;16.00;99.90;;;14.65;79.77;101709.28;3509273;40;102185;-41
2021/06/24 00:54:14;;;;;;;9.23;5.47;;;16.00;99.90;;;14.72;80.13;101716.66;3498325;40;102234;-41
2021/06/24 00:56:42;;;;;;;8.45;5.35;;;16.00;99.90;;;14.70;80.03;101716.00;3498484;40;102434;-41
2021/06/24 00:59:10;;;;;;;8.35;5.75;;;16.00;99.90;;;14.75;80.35;101711.59;3498454;40;105247;-41
2021/06/24 01:01:40;;;;;;;11.15;6.10;;;16.00;99.90;;;14.74;79.61;101711.81;3498647;40;102509;-40
2021/06/24 01:04:07;;;;;;;10.65;5.97;;;16.00;99.90;;;14.74;79.91;101709.91;3499559;40;103108;-41
2021/06/24 01:06:35;;;;;;;7.38;4.75;;;16.10;99.90;;;14.72;80.17;101698.31;3499872;40;102917;-41
2021/06/24 01:09:04;;;;;;;8.98;5.72;;;16.00;99.90;;;14.69;79.67;101698.72;3499221;40;102277;-41
2021/06/24 01:11:32;;;;;;;;;;;16.00;99.90;;;14.70;80.29;101694.03;3499694;40;102413;-41
2021/06/24 01:14:00;;;;;;;9.25;5.82;;;16.00;99.90;;;14.75;80.53;101697.03;3499689;40;102656;-40
2021/06/24 01:16:28;;;;;;;8.30;5.93;;;16.00;99.90;;;14.78;80.12;101702.91;3499343;40;102262;-40
2021/06/24 01:18:56;;;;;;;9.70;6.35;;;16.10;99.90;;;14.82;80.25;101698.66;3499522;40;103135;-41
2021/06/24 01:21:23;;;;;;;10.32;5.68;;;16.10;99.90;;;14.78;79.45;101700.16;3499280;40;102915;-41
2021/06/24 01:23:50;;;;;;;8.13;5.47;;;16.10;99.90;;;14.75;79.56;101691.53;3499278;40;102189;-41
2021/06/24 01:26:21;;;;;;;8.40;5.65;;;16.10;99.90;;;14.74;79.87;101687.09;3499014;40;102126;-41
2021/06/24 01:28:49;;;;;;;11.00;6.28;;;16.10;99.90;;;14.80;79.20;101689.78;3499269;40;102170;-41
2021/06/24 01:31:20;;;;;;;10.13;5.78;;;16.10;99.90;;;14.73;79.52;101689.00;3498970;40;102435;-41
2021/06/24 01:33:48;;;;;;;7.90;5.50;;;16.10;99.90;;;14.74;79.57;101687.09;3499114;40;103172;-40
2021/06/24 01:36:16;;;;;;;7.30;5.25;;;16.10;99.90;;;14.71;79.94;101684.78;3499321;40;103269;-41
2021/06/24 01:38:45;;;;;;;8.23;5.32;;;16.10;99.90;;;14.71;79.42;101687.50;3498188;40;102392;-40
2021/06/24 01:41:23;;;;;;;6.80;5.15;;;16.00;99.90;;;14.67;79.58;101689.84;3499356;40;103286;-41
2021/06/24 01:43:53;;;;;;;8.27;5.47;;;16.00;99.90;;;14.70;80.68;101683.91;3499991;40;102403;-39
2021/06/24 01:46:21;;;;;;;9.70;6.35;;;16.00;99.90;;;14.67;80.79;101678.88;3499501;40;102460;-41
2021/06/24 01:48:53;;;;;;;8.05;5.60;;;16.00;99.90;;;14.63;80.03;101683.94;3500796;40;103184;-44
2021/06/24 01:51:22;;;;;;;8.93;5.85;;;16.00;99.90;;;14.63;80.46;101678.44;3500990;40;102432;-38
2021/06/24 01:53:51;;;;;;;10.35;5.95;;;16.00;99.90;;;14.59;80.73;101677.19;3500481;40;104085;-40
2021/06/24 01:56:22;;;;;;;8.75;5.70;;;15.90;99.90;;;14.57;80.47;101675.72;3500467;40;102536;-40
2021/06/24 01:58:50;;;;;;;12.30;6.22;;;15.90;99.90;;;14.57;80.53;101675.72;3499559;40;103346;-41
2021/06/24 02:01:30;;;;;;;7.97;6.00;;;15.90;99.90;;;14.52;81.17;101669.00;3499339;40;102532;-40
2021/06/24 02:04:11;;;;;;;9.73;6.15;;;15.90;99.90;;;14.49;80.28;101665.84;3499636;40;104500;-40
2021/06/24 02:06:40;;;;;;;9.77;6.30;;;15.80;99.90;;;14.45;79.77;101665.44;3499392;40;102387;-42
2021/06/24 02:09:27;;;;;;;7.85;6.13;;;15.80;99.90;;;14.40;80.94;101668.00;3500517;40;103138;-40
2021/06/24 02:11:59;;;;;;;10.05;6.05;;;15.80;99.90;;;14.35;81.41;101667.81;3500295;40;104167;-41
2021/06/24 02:14:37;;;;;;;10.88;6.53;;;15.70;99.90;;;14.34;80.90;101672.44;3499364;40;102411;-41
2021/06/24 02:17:05;;;;;;;10.32;5.97;;;15.70;99.90;;;14.25;81.42;101665.53;3499562;40;102320;-41
2021/06/24 02:19:33;;;;;;;11.43;6.18;;;15.60;99.90;;;14.21;81.66;101661.53;3500509;40;103710;-41
2021/06/24 02:22:09;;;;;;;7.82;5.90;;;15.60;99.90;;;14.13;82.41;101659.00;3499644;40;103412;-41
2021/06/24 02:24:48;;;;;;;10.30;6.15;;;15.50;99.90;;;14.03;82.67;101652.09;3499424;40;102405;-42
2021/06/24 02:27:17;;;;;;;11.05;6.68;;;15.40;99.90;;;13.93;83.02;101649.78;3499431;40;103075;-42
2021/06/24 02:30:06;;;;;;;10.23;6.47;;;15.30;99.90;;;13.88;83.41;101651.47;3500356;40;103251;-43
2021/06/24 02:32:34;;;;;;;9.10;5.72;;;15.30;99.90;;;13.88;83.06;101652.34;3499376;40;102528;-41
2021/06/24 02:35:12;;;;;;;9.15;6.35;;;15.30;99.90;;;13.90;83.61;101644.72;3507084;40;104557;-41
2021/06/24 02:37:54;;;;;;;10.70;6.75;;;15.30;99.90;;;13.83;83.69;101641.16;3499447;40;102534;-41
2021/06/24 02:40:38;;;;;;;11.18;6.47;;;15.20;99.90;;;13.74;83.95;101636.94;3500061;40;102343;-42
2021/06/24 02:43:06;;;;;;;14.10;6.85;;;15.20;99.90;;;13.68;84.62;101646.03;3500465;40;102422;-40
2021/06/24 02:45:41;;;;;;;10.65;6.70;;;15.10;99.90;;;13.62;84.59;101639.50;3499142;40;104352;-43
2021/06/24 02:48:13;;;;;;;9.63;6.30;;;15.00;99.90;;;13.59;85.06;101642.66;3499346;40;102420;-41
2021/06/24 02:50:41;;;;;;;11.55;7.30;;;15.00;99.90;;;13.51;85.39;101646.47;3500280;40;102444;-45
2021/06/24 02:53:10;;;;;;;9.32;6.47;;;14.90;99.90;;;13.42;85.58;101648.56;3500349;40;102619;-41
2021/06/24 02:55:41;;;;;;;10.60;6.53;;;14.90;99.90;;;13.37;85.80;101638.25;3499297;40;104190;-43
2021/06/24 02:58:10;;;;;;;10.52;6.93;;;14.80;99.90;;;13.33;85.90;101631.50;3499176;40;103139;-41
2021/06/24 03:00:51;;;;;;;9.40;6.68;;;14.80;99.90;;;13.27;86.22;101639.72;3499567;40;104749;-41
2021/06/24 03:03:30;;;;;;;9.25;6.15;;;14.70;99.90;;;13.18;86.63;101628.97;3500234;40;102400;-41
2021/06/24 03:06:21;;;;;;;8.02;6.45;;;14.60;99.90;;;13.11;86.80;101638.22;3494680;40;103981;-41
2021/06/24 03:08:51;;;;;;;10.30;6.97;;;14.60;99.90;;;13.05;86.76;101639.91;3500712;40;102717;-40
2021/06/24 03:11:22;;;;;;;8.43;6.63;;;14.50;99.90;;;13.01;87.25;101634.03;3499415;40;104555;-43
2021/06/24 03:13:54;;;;;;;9.77;6.85;;;14.50;99.90;;;13.01;87.29;101633.16;3500211;40;102289;-45
2021/06/24 03:16:39;;;;;;;8.82;7.43;;;14.50;99.90;;;13.08;87.60;101634.88;3499226;40;103237;-40
2021/06/24 03:19:08;;;;;;;11.18;6.82;;;14.50;99.90;;;13.08;87.65;101634.00;3500397;40;102450;-40
2021/06/24 03:21:43;;;;;;;12.27;7.47;;;14.50;99.90;;;13.08;88.00;101636.75;3499187;40;103196;-41
2021/06/24 03:24:11;;;;;;;10.38;7.53;;;14.50;99.90;;;13.09;88.33;101633.81;3500344;40;102365;-41
2021/06/24 03:26:39;;;;;;;13.07;7.35;;;14.50;99.90;;;13.16;88.51;101639.31;3500079;40;103300;-43
2021/06/24 03:29:10;;;;;;;10.80;8.05;;;14.60;99.90;;;13.19;88.18;101624.31;3500023;40;102486;-40
2021/06/24 03:31:47;;;;;;;12.43;8.32;;;14.60;99.90;;;13.29;87.76;101629.38;3500044;40;102220;-38
2021/06/24 03:34:18;;;;;;;10.48;7.55;;;14.60;99.90;;;13.36;87.59;101636.56;3499984;40;102392;-41
2021/06/24 03:36:47;;;;;;;12.10;7.40;;;14.70;99.90;;;13.42;87.80;101634.88;3499713;40;102323;-41
2021/06/24 03:39:17;;;;;;;12.50;7.90;;;14.80;99.90;;;13.49;87.26;101640.34;3507296;40;103300;-40
2021/06/24 03:41:45;;;;;;;14.43;8.82;;;14.80;99.90;;;13.57;87.88;101637.41;3498987;40;104467;-41
2021/06/24 03:44:13;;;;;;;13.70;7.97;;;14.90;99.90;;;13.61;87.25;101640.56;3498854;40;105307;-41
2021/06/24 03:46:41;;;;;;;12.23;8.50;;;14.90;99.90;;;13.66;87.41;101644.34;3499983;40;104086;-40
2021/06/24 03:49:11;;;;;;;13.65;8.63;;;15.00;99.90;;;13.72;86.14;101634.44;3507341;40;102257;-40
2021/06/24 03:51:40;;;;;;;12.27;8.02;;;15.00;99.90;;;13.77;86.10;101631.91;3499823;40;102195;-40
2021/06/24 03:54:08;;;;;;;13.82;7.60;;;15.10;99.90;;;13.80;86.45;101628.72;3498962;40;102582;-45
2021/06/24 03:56:38;;;;;;;11.65;8.25;;;15.10;99.90;;;13.87;86.23;101633.34;3499013;40;102297;-41
2021/06/24 03:59:19;;;;;;;16.75;8.80;;;15.20;99.90;;;13.94;86.08;101629.53;3500328;40;102347;-43
2021/06/24 04:01:52;;;;;;;14.77;8.70;;;15.20;99.90;;;14.01;85.33;101625.91;3500209;40;103166;-41
2021/06/24 04:04:19;;;;;;;12.88;8.55;;;15.30;99.90;;;14.08;85.22;101626.75;3499675;40;102388;-40
2021/06/24 04:06:53;;;;;;;14.23;8.77;;;15.40;99.90;;;14.14;86.35;101631.38;3499644;40;102279;-44
2021/06/24 04:09:21;;;;;;;16.05;8.80;;;15.40;99.90;;;14.16;84.59;101622.91;3500140;40;102211;-42
2021/06/24 04:11:49;;;;;;;17.05;8.00;;;15.40;99.90;;;14.17;83.75;101624.59;3499930;40;102314;-45
2021/06/24 04:14:37;;;;;;;15.43;8.55;;;15.50;99.90;;;14.27;83.27;101625.00;3499565;40;102521;-40
2021/06/24 04:17:27;;;;;;;14.40;8.35;;;15.50;99.90;;;14.37;83.37;101616.28;3499894;40;105422;-45
2021/06/24 04:19:55;;;;;;;12.30;8.93;;;15.60;99.90;;;14.49;84.13;101614.53;3499639;40;102389;-40
2021/06/24 04:22:23;;;;;;;12.48;8.55;;;15.70;99.90;;;14.49;82.92;101617.25;3499764;40;102463;-41
2021/06/24 04:25:20;;;;;;;12.65;8.18;;;15.70;99.90;;;14.53;82.23;101617.69;3494680;40;102257;-40
2021/06/24 04:27:51;;;;;;;11.85;8.18;;;15.80;99.90;;;14.56;82.59;101628.22;3500081;40;103120;-45
2021/06/24 04:30:21;;;;;;;11.95;8.32;;;15.80;99.90;;;14.62;82.51;101627.34;3499794;40;102249;-41
2021/06/24 04:32:52;;;;;;;14.55;8.40;;;15.80;99.90;;;14.72;82.52;101626.03;3499863;40;103141;-42
2021/06/24 04:35:29;;;;;;;11.30;8.35;;;15.90;99.90;;;14.72;81.92;101620.53;3499776;40;103357;-41
2021/06/24 04:37:59;;;;;;;13.30;8.10;;;15.90;99.90;;;14.76;82.11;101619.06;3499883;40;102638;-41
2021/06/24 04:40:28;;;;;;;15.43;8.45;;;16.00;99.90;;;14.79;81.27;101615.88;3498696;40;102355;-41
2021/06/24 04:42:57;;;;;;;11.00;7.78;;;16.00;99.90;;;14.79;80.49;101616.69;3506587;40;103050;-41
2021/06/24 04:45:26;;;;;;;12.07;8.35;;;16.00;99.90;;;14.86;81.62;101611.16;3499493;40;102697;-41
2021/06/24 04:48:16;;;;;;;14.02;8.30;;;16.10;99.90;;;14.94;80.67;101613.63;3498562;40;102445;-41
2021/06/24 04:50:47;;;;;;;13.25;8.05;;;16.20;99.90;;;15.03;80.02;101605.97;3499434;40;102338;-41
2021/06/24 04:53:15;;;;;;;14.48;8.68;;;16.20;99.90;;;15.19;80.66;101618.31;3499643;40;103179;-40
2021/06/24 04:56:00;;;;;;;11.88;7.60;;;16.30;99.90;;;15.32;80.11;101608.28;3498077;40;102466;-41
2021/06/24 04:58:29;;;;;;;11.15;7.97;;;16.40;99.90;;;15.47;81.11;101614.25;3506689;40;102284;-40
2021/06/24 05:01:15;;;;;;;11.13;8.27;;;16.60;99.90;;;15.57;79.95;101615.66;3499679;40;102702;-40
2021/06/24 05:04:01;;;;;;;12.38;7.65;;;16.70;99.90;;;15.55;78.84;101602.13;3499335;40;102396;-40
2021/06/24 05:06:29;;;;;;;13.02;8.18;;;16.70;99.90;;;15.49;78.40;101605.78;3499373;40;102931;-41
2021/06/24 05:08:56;;;;;;;11.90;8.48;;;16.70;99.90;;;15.46;78.43;101603.50;3499536;40;103039;-41
2021/06/24 05:11:24;;;;;;;12.63;8.50;;;16.70;99.90;;;15.53;78.33;101607.00;3499802;40;102541;-41
2021/06/24 05:13:52;;;;;;;13.13;8.07;;;16.70;99.90;;;15.61;78.99;101600.38;3499240;40;103202;-40
2021/06/24 05:16:19;;;;;;;13.75;8.07;;;16.80;99.90;;;15.74;78.50;101599.41;3499443;40;102471;-41
2021/06/24 05:18:47;;;;;;;14.35;8.52;;;16.90;99.90;;;15.96;78.87;101599.81;3500203;40;102575;-40
2021/06/24 05:21:15;;;;;;;10.75;7.78;;;17.00;99.90;;;16.04;77.70;101604.16;3500688;40;102288;-41
2021/06/24 05:23:44;;;;;;;13.48;8.90;;;17.10;99.90;;;16.02;76.38;101607.13;3500845;40;103301;-40
2021/06/24 05:26:11;;;;;;;12.40;8.57;;;17.10;99.90;;;16.04;76.92;101610.50;3500668;40;102450;-41
2021/06/24 05:28:39;;;;;;;12.52;8.10;;;17.20;99.90;;;16.02;75.47;101617.31;3500613;40;102164;-40
2021/06/24 05:31:06;;;;;;;15.70;8.45;;;17.20;99.90;;;16.08;75.48;101616.38;3500624;40;102448;-41
2021/06/24 05:33:34;;;;;;;12.30;9.23;;;17.20;99.90;;;16.19;75.51;101623.03;3500418;40;102446;-41
2021/06/24 05:36:01;;;;;;;12.18;8.55;;;17.30;99.90;;;16.08;74.57;101619.13;3500785;40;102571;-41
2021/06/24 05:38:29;;;;;;;15.38;8.43;;;17.30;99.90;;;16.00;75.22;101625.78;3500760;40;103237;-40
2021/06/24 05:40:57;;;;;;;12.13;8.52;;;17.20;99.90;;;16.21;75.18;101620.88;3500709;40;102487;-41
2021/06/24 05:43:24;;;;;;;13.02;8.13;;;17.30;99.90;;;16.34;76.29;101619.88;3500649;40;104215;-41
2021/06/24 05:45:52;;;;;;;14.50;8.68;;;17.40;99.90;;;16.61;77.23;101617.63;3500687;40;102117;-42
2021/06/24 05:48:19;;;;;;;15.02;8.80;;;17.60;99.90;;;16.85;74.55;101616.84;3500954;40;102320;-41
2021/06/24 05:50:47;;;;;;;11.57;8.38;;;17.80;99.90;;;17.02;73.90;101614.25;3500869;40;102431;-41
2021/06/24 05:53:14;;;;;;;17.35;9.75;;;18.10;99.90;;;17.15;72.38;101619.56;3500889;40;103281;-41
2021/06/24 05:55:48;;;;;;;15.43;8.50;;;18.20;99.90;;;17.25;72.41;101614.31;3500595;40;102673;-41
2021/06/24 05:58:21;;;;;;;13.60;8.55;;;18.30;99.90;;;17.37;71.74;101617.06;3500554;40;103328;-41
2021/06/24 06:00:51;;;;;;;13.52;8.07;;;18.40;99.90;;;17.42;71.52;101610.00;3501162;40;102351;-41
2021/06/24 06:03:20;;;;;;;17.42;9.13;;;18.50;99.90;;;17.60;69.95;101614.53;3500698;40;103958;-39
2021/06/24 06:05:50;;;;;;;13.25;8.55;;;18.50;99.90;;;17.66;69.30;101613.59;3500892;40;102541;-40
2021/06/24 06:08:18;;;;;;;13.52;8.73;;;18.70;99.90;;;17.92;71.24;101620.50;3500614;40;102701;-41
2021/06/24 06:10:47;;;;;;;12.80;9.05;;;18.90;99.90;;;17.76;69.36;101612.97;3500427;40;102297;-40
2021/06/24 06:13:15;;;;;;;13.55;8.88;;;18.80;99.90;;;17.84;70.33;101615.38;3500561;40;103390;-41
2021/06/24 06:15:49;;;;;;;14.25;8.55;;;18.90;99.90;;;17.98;68.95;101608.50;3500341;40;102220;-41
2021/06/24 06:18:25;;;;;;;12.05;8.68;;;19.00;99.90;;;17.92;68.15;101612.22;3500392;40;102444;-45
2021/06/24 06:20:55;;;;;;;13.52;8.70;;;19.00;99.90;;;17.86;69.54;101618.72;3500342;40;102442;-41
2021/06/24 06:23:27;;;;;;;13.93;8.63;;;19.00;99.90;;;17.74;68.67;101609.59;3500580;40;104230;-41
2021/06/24 06:25:56;;;;;;;13.55;8.77;;;18.90;99.90;;;17.82;68.90;101606.50;3500693;40;102978;-41
2021/06/24 06:28:25;;;;;;;15.27;9.10;;;18.90;99.90;;;17.90;69.74;101605.25;3500017;40;103180;-41
2021/06/24 06:30:57;;;;;;;15.23;9.32;;;19.00;99.90;;;17.97;71.88;101598.53;3500281;40;103302;-41
2021/06/24 06:33:24;;;;;;;18.77;9.38;;;19.00;99.90;;;17.96;67.84;101607.06;3500128;40;103167;-42
2021/06/24 06:35:52;;;;;;;;;;;19.10;99.90;;;17.96;68.34;101613.41;3501339;40;102304;-44
2021/06/24 06:38:22;;;;;;;12.63;8.75;;;19.10;99.90;;;18.07;68.40;101608.16;3500494;40;103988;-45
2021/06/24 06:40:50;;;;;;;15.23;9.10;;;19.20;99.90;;;18.05;68.37;101593.75;3500306;40;102544;-41
2021/06/24 06:43:19;;;;;;;15.18;8.60;;;19.10;99.90;;;18.04;69.11;101611.41;3645569;22;103475;-40
2021/06/24 06:45:47;;;;;;;14.77;8.73;;;19.10;99.90;;;17.89;69.54;101612.72;3529253;39;102369;-40
2021/06/24 06:48:15;;;;;;;14.25;9.30;;;19.00;99.90;;;18.02;68.47;101602.50;3530172;39;102590;-40
2021/06/24 06:50:45;;;;;;;15.02;10.13;;;19.10;99.90;;;17.98;67.74;101602.16;3529742;39;103485;-39
2021/06/24 06:53:13;;;;;;;13.73;9.15;;;19.10;99.90;;;18.04;70.42;101603.97;3525268;39;102299;-40
2021/06/24 06:55:40;;;;;;;;;;;19.10;99.90;;;18.02;68.24;101600.59;3520658;40;103405;-40
2021/06/24 06:58:08;;;;;;;15.43;9.93;;;19.10;99.90;;;18.00;68.39;101599.13;3520439;39;102163;-39
2021/06/24 07:00:35;;;;;;;;;;;19.10;99.90;;;18.13;68.41;101607.19;3520727;40;103306;-40
2021/06/24 07:03:04;;;;;;;14.05;9.00;;;19.20;99.90;;;18.23;67.99;101601.84;3519815;39;102297;-40
2021/06/24 07:05:33;;;;;;;13.40;9.05;;;19.30;99.90;;;18.50;69.29;101612.31;3520011;40;103394;-40
2021/06/24 07:08:00;;;;;;;14.95;9.13;;;19.40;99.90;;;18.47;67.13;101607.28;3519871;39;104113;-40
2021/06/24 07:10:28;;;;;;;16.13;9.48;;;19.50;99.90;;;18.46;67.31;101610.31;3519763;40;103659;-40
2021/06/24 07:12:55;;;;;;;15.25;10.07;;;19.50;99.90;;;18.16;67.74;101606.69;3520132;39;103139;-39
2021/06/24 07:15:23;;;;;;;13.70;9.50;;;19.40;99.90;;;18.02;67.81;101613.56;3519681;39;102135;-40
2021/06/24 07:17:51;;;;;;;16.00;10.05;;;19.20;99.90;;;17.96;69.29;101605.13;3519703;39;103146;-39
2021/06/24 07:20:19;;;;;;;14.27;10.10;;;19.10;99.90;;;18.12;71.37;101602.75;3519992;39;102331;-40
2021/06/24 07:22:46;;;;;;;15.50;10.57;;;19.20;99.90;;;18.26;69.45;101606.88;3519588;39;103185;-41
2021/06/24 07:25:17;;;;;;;14.40;10.25;;;19.30;99.90;;;18.36;68.56;101602.66;3520050;39;102518;-40
2021/06/24 07:27:45;;;;;;;14.88;10.40;;;19.40;99.90;;;18.24;68.91;101597.19;3520270;39;102314;-40
2021/06/24 07:30:14;;;;;;;17.15;11.30;;;19.40;99.90;;;18.40;67.13;101603.84;3519940;39;102409;-39
2021/06/24 07:32:42;;;;;;;14.07;9.95;;;19.50;99.90;;;18.50;68.96;101609.56;3519761;39;102336;-40
2021/06/24 07:35:11;;;;;;;16.58;10.68;;;19.50;99.90;;;18.63;67.37;101602.06;3519675;39;102619;-40
2021/06/24 07:37:42;;;;;;;16.55;10.50;;;19.60;99.90;;;18.74;66.23;101600.34;3519464;40;105187;-41
2021/06/24 07:40:11;;;;;;;16.25;11.02;;;19.80;99.90;;;18.69;66.53;101609.34;3519895;39;102439;-40
2021/06/24 07:42:38;;;;;;;14.93;10.13;;;19.80;99.90;;;18.73;67.13;101605.00;3519220;40;104225;-40
2021/06/24 07:45:07;;;;;;;15.02;11.15;;;19.70;99.90;;;18.67;64.97;101606.00;3519794;39;102946;-40
2021/06/24 07:47:34;;;;;;;17.10;11.90;;;19.80;99.90;;;18.58;65.71;101599.22;3519677;40;103239;-39
2021/06/24 07:50:04;;;;;;;15.75;11.23;;;19.80;99.90;;;18.80;64.12;101604.84;3519710;39;102183;-40
2021/06/24 07:52:31;;;;;;;19.35;11.95;;;19.80;99.90;;;18.71;65.45;101601.66;3519615;39;103372;-41
2021/06/24 07:54:59;;;;;;;15.32;11.90;;;19.80;99.90;;;18.55;67.13;101593.06;3520142;39;102497;-40
2021/06/24 07:57:28;;;;;;;19.52;12.35;;;19.70;99.90;;;18.50;67.84;101603.22;3519679;39;102885;-39
2021/06/24 07:59:57;;;;;;;16.55;12.25;;;19.60;99.90;;;18.25;66.41;101605.22;3519810;39;102529;-40
2021/06/24 08:02:24;;;;;;;17.08;11.88;;;19.50;99.90;;;18.05;67.61;101597.34;3520014;39;103172;-39
2021/06/24 08:04:52;;;;;;;20.75;12.95;;;19.40;99.90;;;18.03;68.35;101606.94;3519963;39;102578;-40
2021/06/24 08:07:20;;;;;;;19.77;12.25;;;19.30;99.90;;;17.98;67.98;101599.38;3519707;40;104151;-40
2021/06/24 08:09:47;;;;;;;16.80;12.10;;;19.30;99.90;;;17.87;67.85;101603.00;3520054;39;102572;-40
2021/06/24 08:12:15;;;;;;;23.85;14.23;;;19.10;99.90;;;17.77;68.58;101609.13;3519409;39;102340;-40
2021/06/24 08:14:42;;;;;;;20.75;12.75;;;19.00;99.90;;;17.94;69.60;101606.47;3519681;39;102621;-45
2021/06/24 08:17:10;;;;;;;19.70;13.73;;;19.10;99.90;;;18.00;66.97;101608.25;3519726;39;102161;-40
2021/06/24 08:19:37;;;;;;;;;;;19.10;99.90;;;18.17;68.83;101602.84;3520302;39;102268;-39
2021/06/24 08:22:05;;;;;;;20.23;12.68;;;19.20;99.90;;;18.36;67.00;101602.66;3519776;39;103224;-40
2021/06/24 08:24:33;;;;;;;20.20;13.38;;;19.40;99.90;;;18.59;67.88;101610.00;3519396;39;102203;-41
2021/06/24 08:27:01;;;;;;;18.08;13.45;;;19.60;99.90;;;18.70;65.64;101605.50;3519604;39;104006;-40
2021/06/24 08:29:29;;;;;;;18.80;12.95;;;19.70;99.90;;;18.79;64.10;101604.00;3519703;39;102642;-40
2021/06/24 08:32:00;;;;;;;23.17;13.98;;;19.80;99.90;;;18.66;64.22;101601.56;3520052;39;102196;-40
2021/06/24 08:34:30;;;;;;;20.98;13.45;;;19.80;99.90;;;18.89;64.08;101602.53;3518841;39;102469;-40
2021/06/24 08:36:58;;;;;;;19.30;13.73;;;19.90;99.90;;;19.16;66.71;101608.25;3519535;39;102198;-40
2021/06/24 08:39:25;;;;;;;21.58;13.70;;;20.10;99.90;;;19.44;64.49;101603.69;3519611;39;102613;-39
2021/06/24 08:41:54;;;;;;;20.42;13.20;;;20.30;99.90;;;19.64;63.19;101599.56;3519281;40;102348;-41
2021/06/24 08:44:21;;;;;;;21.20;14.38;;;20.50;99.90;;;19.58;63.37;101603.38;3519207;39;102415;-40
2021/06/24 08:46:53;;;;;;;19.10;13.52;;;20.60;99.90;;;19.74;62.79;101598.88;3519822;39;102306;-40
2021/06/24 08:49:24;;;;;;;20.65;14.73;;;20.60;99.90;;;19.39;61.75;101609.16;3519438;39;102350;-38
2021/06/24 08:51:54;;;;;;;18.00;14.05;;;20.60;99.90;;;19.33;62.72;101613.78;3519130;40;103186;-41
2021/06/24 08:54:23;;;;;;;19.92;14.48;;;20.60;99.90;;;19.32;64.21;101614.88;3520408;40;103327;-40
2021/06/24 08:56:50;;;;;;;20.30;15.52;;;20.50;99.90;;;19.27;64.09;101612.03;3520901;39;102401;-40
2021/06/24 08:59:19;;;;;;;23.17;14.57;;;20.50;99.90;;;19.43;63.38;101610.31;3519377;40;102467;-40
2021/06/24 09:01:55;;;;;;;;;;;20.40;99.90;;;19.18;63.17;101613.53;3521206;39;102271;-41
2021/06/24 09:04:32;;;;;;;21.65;15.35;;;20.30;99.90;;;19.08;64.22;101611.44;3520644;39;102450;-39
2021/06/24 09:07:12;;;;;;;22.27;14.90;;;20.30;99.90;;;18.97;65.39;101613.16;3521007;39;103192;-39
2021/06/24 09:09:53;;;;;;;22.33;15.02;;;20.20;99.90;;;19.24;66.80;101610.63;3520668;40;102750;-38
2021/06/24 09:12:23;;;;;;;23.15;15.63;;;20.30;99.90;;;19.61;63.45;101600.09;3520499;39;102191;-40
2021/06/24 09:14:56;;;;;;;20.42;15.48;;;20.50;99.90;;;19.85;61.96;101614.53;3520074;39;102658;-40
2021/06/24 09:17:41;;;;;;;21.65;15.10;;;20.70;99.90;;;19.79;61.79;101607.25;3520361;39;102744;-39
2021/06/24 09:20:24;;;;;;;21.20;14.93;;;20.90;99.90;;;20.52;61.40;101606.22;3520650;39;102431;-39
2021/06/24 09:23:24;;;;;;;21.67;14.80;;;21.20;99.90;;;21.04;61.63;101590.94;3520358;39;103337;-39
2021/06/24 09:26:13;;;;;;;22.48;14.73;;;21.80;99.90;;;21.58;60.31;101594.63;3516297;39;103445;-40
2021/06/24 09:28:49;;;;;;;19.35;14.55;;;22.20;99.90;;;22.02;57.27;101592.69;3520486;39;103574;-39
2021/06/24 09:31:31;;;;;;;17.70;13.30;;;22.60;99.90;;;22.35;59.20;101596.09;3520400;39;102591;-39
2021/06/24 09:34:08;;;;;;;20.75;14.30;;;22.90;99.90;;;22.41;55.72;101601.41;3519949;39;102450;-39
2021/06/24 09:36:39;;;;;;;20.20;13.75;;;23.20;99.90;;;22.52;57.93;101593.94;3520500;39;102541;-40
2021/06/24 09:39:37;;;;;;;19.83;14.73;;;23.40;99.90;;;22.95;55.56;101593.72;3520723;39;103769;-40
2021/06/24 09:42:13;;;;;;;20.33;13.73;;;23.60;99.90;;;22.77;55.81;101597.88;3520392;39;102533;-40
2021/06/24 09:44:46;;;;;;;19.88;13.52;;;23.60;99.90;;;22.23;57.13;101593.56;3520042;39;102328;-40
2021/06/24 09:47:26;;;;;;;17.50;14.02;;;23.40;99.90;;;22.10;55.32;101592.97;3520240;39;102530;-41
2021/06/24 09:49:59;;;;;;;19.83;14.10;;;23.20;99.90;;;21.96;55.93;101589.84;3520473;39;102420;-39
2021/06/24 09:52:28;;;;;;;19.83;13.52;;;23.00;99.90;;;21.52;56.21;101588.22;3520552;39;102813;-41
2021/06/24 09:55:10;;;;;;;20.70;14.95;;;22.70;99.90;;;21.34;56.58;101595.03;3520402;39;103313;-40
2021/06/24 09:57:38;;;;;;;20.15;15.15;;;22.60;99.90;;;21.44;57.95;101593.44;3520436;39;102424;-40
2021/06/24 10:00:20;;;;;;;19.33;13.98;;;22.50;99.90;;;21.69;58.14;101590.00;3520274;39;102333;-40
2021/06/24 10:03:12;;;;;;;18.10;14.82;;;22.60;99.90;;;21.97;58.67;101585.16;3519695;39;102443;-40
2021/06/24 10:05:40;;;;;;;20.38;14.30;;;22.70;99.90;;;22.02;58.79;101584.34;3519715;40;102878;-41
2021/06/24 10:08:08;;;;;;;21.02;14.35;;;22.80;99.90;;;21.76;57.58;101589.78;3520219;39;103783;-40
2021/06/24 10:10:38;;;;;;;17.88;14.57;;;22.70;99.90;;;21.17;56.35;101586.03;3519993;40;104139;-41
2021/06/24 10:13:07;;;;;;;19.08;14.30;;;22.40;99.90;;;21.47;60.31;101581.78;3520525;39;102061;-40
2021/06/24 10:15:36;;;;;;;24.38;15.02;;;22.50;99.90;;;21.98;60.98;101581.25;3520597;39;103086;-39
2021/06/24 10:18:05;;;;;;;21.67;13.40;;;22.70;99.90;;;22.09;57.45;101587.69;3520150;39;102510;-39